Baker, MT

8:51 AM MDT on May 29, 2015 (GMT -0600)
Baker Municipal | | Change Station
CLOSE
Current Station
Airport
Location: Baker,
Elevation: 2972 ft
Nearby Weather Stations

Elev 2972 ft 46.35 °N, 104.26 °W | Updated 13 minutes ago

Overcast
Overcast
44 °F
Feels Like 38 °F
N
12
Wind Variable Wind from North

Today
High -- | Low -- °F
--% Chance of Precip.
Yesterday
High -- | Low -- °F
Precip. -- in
5:10 AM 8:38 PM
Waxing Gibbous, 84% visible
Pressure 30.29 in
Visibility 10.0 miles
Clouds Scattered Clouds 2000 ft
Windchill 38 °F
Dew Point 34 °F
Humidity 68%
Rainfall 0.00 in
Snow Depth Not available.
UV 3 out of 12
Pollen 8.50 out of 12
Air Quality Not available.
Flu Activity Sporadic
SPECI KBHK 291438Z AUTO 36010KT 10SM SCT020 07/01 A3029 RMK AO2 T00670011

More Conditions Fewer Conditions

Pressure 30.29 in
Visibility 10.0 miles
Clouds Scattered Clouds 2000 ft
Windchill 38 °F
Dew Point 34 °F
Humidity 68%
Rainfall 0.00 in
Snow Depth Not available.
UV 3 out of 12
Pollen 8.50 out of 12
Air Quality Not available.
Flu Activity Sporadic
SPECI KBHK 291438Z AUTO 36010KT 10SM SCT020 07/01 A3029 RMK AO2 T00670011

More Conditions Fewer Conditions

10-Day Weather Forecast

Almanac

Astronomy

May. 29, 2015 Rise Set
Actual Time
Civil Twilight
Nautical Twilight
Astronomical Twilight
Moon
Length of Visible Light
Length of Day
Tomorrow will be .
, % of the Moon is Illuminated

Today's Extremes

State Highs State Lows

Community

WunderPhotos

Upload Photos

1,825,288 photos uploaded!

WunderBlogs® & News

Nearby

Air Quality

  Air Quality AQ Index Pollutant
Not available.

Snow Depth

Station Depth Elevation

Earthquake Activity

City Distance Mag. Time & Date
Minimum magnitude displayed is 2.5.

Coastal Water Temperatures

Place Temperature

Stations

Nearby Weather Stations

Station Location Temp. Windchill Dew Point Humidity Wind Precip. Elev Updated Type